Time;durP1;ratioP1;P1;durP2;ratioP2;P2;SDS_P1;SDS_P2;PMS_P1;PMS_P2;Temp;Humidity;BMP_temperature;BMP_pressure;BME280_temperature;BME280_humidity;BME280_pressure;Samples;Min_cycle;Max_cycle;Signal;HPM_P1;HPM_P2
2021/05/28 00:01:35;;;;;;;15.18;11.23;;;19.50;86.10;;;;;;5076079;28;20035;-47
2021/05/28 00:04:01;;;;;;;12.52;11.00;;;19.50;86.00;;;;;;5075604;28;20055;-43
2021/05/28 00:06:28;;;;;;;12.05;10.77;;;19.60;86.10;;;;;;5075784;28;20082;-44
2021/05/28 00:08:54;;;;;;;11.85;10.57;;;19.60;86.10;;;;;;5075635;28;20400;-37
2021/05/28 00:11:20;;;;;;;11.02;9.85;;;19.60;86.10;;;;;;5075682;28;20040;-39
2021/05/28 00:13:45;;;;;;;16.15;11.90;;;19.60;86.10;;;;;;5075518;28;20024;-44
2021/05/28 00:16:11;;;;;;;13.15;11.18;;;19.60;86.10;;;;;;5075780;28;20033;-45
2021/05/28 00:18:37;;;;;;;16.42;12.57;;;19.60;86.00;;;;;;5075456;28;20027;-45
2021/05/28 00:21:03;;;;;;;11.70;9.93;;;19.60;86.00;;;;;;5075569;28;20054;-37
2021/05/28 00:23:28;;;;;;;12.70;9.93;;;19.60;86.00;;;;;;5075441;28;20029;-45
2021/05/28 00:25:54;;;;;;;12.77;10.95;;;19.60;86.10;;;;;;5075323;28;20024;-44
2021/05/28 00:28:20;;;;;;;12.68;11.15;;;19.60;86.10;;;;;;5075378;28;20029;-37
2021/05/28 00:30:45;;;;;;;10.75;9.75;;;19.60;86.10;;;;;;5075091;28;20036;-44
2021/05/28 00:33:11;;;;;;;12.15;10.80;;;19.60;86.60;;;;;;5075098;28;20039;-37
2021/05/28 00:35:37;;;;;;;12.43;10.95;;;19.60;86.10;;;;;;5075462;28;20052;-48
2021/05/28 00:38:02;;;;;;;12.30;10.45;;;19.60;86.10;;;;;;5075568;28;20032;-37
2021/05/28 00:40:28;;;;;;;11.75;9.85;;;19.60;86.10;;;;;;5076592;28;20028;-37
2021/05/28 00:42:54;;;;;;;11.52;10.02;;;19.60;86.00;;;;;;5079710;28;20100;-43
2021/05/28 00:45:19;;;;;;;13.80;11.20;;;19.50;85.90;;;;;;5079551;28;20024;-38
2021/05/28 00:47:45;;;;;;;12.15;10.10;;;19.60;85.90;;;;;;5079547;28;20095;-44
2021/05/28 00:50:11;;;;;;;13.52;10.90;;;19.50;85.70;;;;;;5079331;28;20056;-39
2021/05/28 00:52:37;;;;;;;10.50;9.45;;;19.50;85.60;;;;;;5079528;28;20024;-43
2021/05/28 00:55:04;;;;;;;12.50;10.02;;;19.50;85.60;;;;;;5079162;28;20044;-45
2021/05/28 00:57:32;;;;;;;10.65;9.55;;;19.50;85.50;;;;;;5079274;28;20052;-37
2021/05/28 00:59:58;;;;;;;10.93;9.60;;;19.40;85.30;;;;;;5079431;28;20037;-38
2021/05/28 01:02:25;;;;;;;10.85;9.75;;;19.50;85.40;;;;;;5079253;28;20024;-48
2021/05/28 01:04:51;;;;;;;11.55;10.38;;;19.40;85.30;;;;;;5078798;28;20056;-37
2021/05/28 01:07:17;;;;;;;14.02;10.18;;;19.40;85.60;;;;;;5078992;28;20024;-37
2021/05/28 01:09:43;;;;;;;14.23;12.23;;;19.40;85.60;;;;;;5078780;28;20032;-37
2021/05/28 01:12:09;;;;;;;15.00;11.63;;;19.30;85.60;;;;;;5079064;28;20036;-37
2021/05/28 01:14:35;;;;;;;11.25;10.07;;;19.30;85.70;;;;;;5078923;28;20051;-47
2021/05/28 01:17:01;;;;;;;12.63;9.63;;;19.30;85.90;;;;;;5078912;28;20040;-37
2021/05/28 01:19:26;;;;;;;12.20;10.55;;;19.30;86.10;;;;;;5078565;28;20408;-45
2021/05/28 01:21:53;;;;;;;11.57;10.43;;;19.20;86.20;;;;;;5078738;28;20043;-36
2021/05/28 01:24:19;;;;;;;13.93;11.68;;;19.30;86.30;;;;;;5078918;28;20407;-37
2021/05/28 01:26:45;;;;;;;14.18;11.57;;;19.20;86.30;;;;;;5078522;28;20052;-37
2021/05/28 01:29:11;;;;;;;16.45;11.13;;;19.20;86.30;;;;;;5078119;28;20068;-37
2021/05/28 01:31:37;;;;;;;13.40;11.23;;;19.20;86.40;;;;;;5078636;28;20404;-37
2021/05/28 01:34:03;;;;;;;12.20;9.98;;;19.20;86.40;;;;;;5078576;28;20036;-45
2021/05/28 01:36:29;;;;;;;11.30;10.13;;;19.20;86.50;;;;;;5078717;28;20167;-37
2021/05/28 01:38:55;;;;;;;13.75;11.73;;;19.20;86.50;;;;;;5078032;28;20028;-44
2021/05/28 01:41:21;;;;;;;12.35;11.15;;;19.30;86.60;;;;;;5078529;28;20028;-44
2021/05/28 01:43:46;;;;;;;15.45;12.60;;;19.20;86.60;;;;;;5078310;28;20031;-37
2021/05/28 01:46:12;;;;;;;16.65;11.93;;;19.20;86.60;;;;;;5078497;28;20115;-46
2021/05/28 01:48:41;;;;;;;16.08;13.20;;;19.20;86.50;;;;;;5078008;28;20071;-44
2021/05/28 01:51:07;;;;;;;15.13;12.40;;;19.20;86.50;;;;;;5078061;28;20051;-45
2021/05/28 01:53:33;;;;;;;15.48;11.73;;;19.20;86.70;;;;;;5077859;28;20047;-37
2021/05/28 01:55:59;;;;;;;15.75;14.02;;;19.20;87.00;;;;;;5077970;28;20033;-37
2021/05/28 01:58:26;;;;;;;13.43;12.02;;;19.20;87.40;;;;;;5077828;28;20107;-43
2021/05/28 02:00:56;;;;;;;17.65;14.90;;;19.20;87.60;;;;;;5078059;28;20025;-37
2021/05/28 02:03:22;;;;;;;16.23;13.20;;;19.20;88.00;;;;;;5077709;28;20067;-37
2021/05/28 02:05:48;;;;;;;14.68;12.60;;;19.20;88.00;;;;;;5077686;28;20052;-38
2021/05/28 02:08:14;;;;;;;16.42;14.73;;;19.20;88.00;;;;;;5077909;28;20630;-44
2021/05/28 02:10:40;;;;;;;16.70;14.48;;;19.20;88.10;;;;;;5077627;28;20032;-45
2021/05/28 02:13:07;;;;;;;21.48;13.30;;;19.30;88.10;;;;;;5078026;28;20037;-44
2021/05/28 02:15:33;;;;;;;16.73;14.93;;;19.30;88.00;;;;;;5077818;28;20084;-44
2021/05/28 02:17:58;;;;;;;18.30;14.80;;;19.30;88.10;;;;;;5077836;28;20126;-47
2021/05/28 02:20:25;;;;;;;22.70;15.27;;;19.30;88.10;;;;;;5077943;28;20033;-37
2021/05/28 02:22:51;;;;;;;19.52;15.25;;;19.30;88.20;;;;;;5077710;28;20025;-46
2021/05/28 02:25:17;;;;;;;16.30;14.60;;;19.30;88.30;;;;;;5076286;28;20036;-45
2021/05/28 02:27:43;;;;;;;16.83;14.55;;;19.30;88.30;;;;;;5077845;28;20393;-37
2021/05/28 02:30:10;;;;;;;14.57;12.73;;;19.30;88.10;;;;;;5077071;28;20033;-37
2021/05/28 02:32:36;;;;;;;17.75;14.40;;;19.30;88.10;;;;;;5077862;28;20060;-39
2021/05/28 02:35:03;;;;;;;16.77;13.45;;;19.30;88.20;;;;;;5077200;28;20113;-37
2021/05/28 02:37:29;;;;;;;19.63;15.15;;;19.30;88.20;;;;;;5077749;28;20039;-44
2021/05/28 02:39:56;;;;;;;18.83;15.60;;;19.30;88.40;;;;;;5076974;28;20032;-44
2021/05/28 02:42:21;;;;;;;19.95;15.43;;;19.30;88.50;;;;;;5077468;28;20031;-45
2021/05/28 02:44:47;;;;;;;19.13;17.13;;;19.30;88.60;;;;;;5077272;28;20111;-37
2021/05/28 02:47:13;;;;;;;17.15;14.45;;;19.30;88.80;;;;;;5077249;28;20025;-37
2021/05/28 02:49:38;;;;;;;19.20;16.10;;;19.30;88.70;;;;;;5077176;28;20408;-48
2021/05/28 02:52:05;;;;;;;16.25;14.20;;;19.30;88.70;;;;;;5077184;28;20077;-44
2021/05/28 02:54:31;;;;;;;18.08;16.02;;;19.30;88.80;;;;;;5076930;28;20094;-37
2021/05/28 02:56:57;;;;;;;15.57;13.85;;;19.30;88.90;;;;;;5076886;28;20041;-45
2021/05/28 02:59:23;;;;;;;20.42;15.98;;;19.30;88.90;;;;;;5076642;28;20039;-37
2021/05/28 03:01:49;;;;;;;21.70;18.65;;;19.30;88.90;;;;;;5076785;28;20025;-44
2021/05/28 03:04:15;;;;;;;17.88;15.77;;;19.40;89.00;;;;;;5075815;28;20025;-46
2021/05/28 03:06:41;;;;;;;18.52;14.63;;;19.40;89.00;;;;;;5076710;28;20290;-48
2021/05/28 03:09:07;;;;;;;16.73;14.93;;;19.40;89.50;;;;;;5076145;28;20024;-48
2021/05/28 03:11:33;;;;;;;20.50;16.50;;;19.40;88.90;;;;;;5076969;28;20024;-37
2021/05/28 03:13:59;;;;;;;17.42;14.43;;;19.40;88.90;;;;;;5076392;28;20157;-46
2021/05/28 03:16:24;;;;;;;17.50;14.82;;;19.50;88.90;;;;;;5076439;28;20082;-37
2021/05/28 03:18:56;;;;;;;20.35;16.80;;;19.50;88.90;;;;;;5076132;28;20020;-45
2021/05/28 03:23:55;;;;;;;18.90;15.27;;;19.50;88.90;;;;;;5076512;28;20024;-44
2021/05/28 03:26:22;;;;;;;20.25;17.50;;;19.60;88.90;;;;;;5076335;28;20029;-38
2021/05/28 03:28:48;;;;;;;20.60;17.90;;;19.60;88.90;;;;;;5076224;28;20082;-47
2021/05/28 03:31:14;;;;;;;20.35;17.80;;;19.60;89.00;;;;;;5076241;28;20396;-37
2021/05/28 03:33:40;;;;;;;18.65;15.70;;;19.60;89.00;;;;;;5076098;28;20032;-38
2021/05/28 03:36:07;;;;;;;26.35;20.92;;;19.60;88.90;;;;;;5075994;28;20071;-38
2021/05/28 03:38:33;;;;;;;22.80;18.23;;;19.60;88.90;;;;;;5076032;28;20055;-37
2021/05/28 03:40:59;;;;;;;21.05;17.00;;;19.70;88.80;;;;;;5075856;28;20074;-44
2021/05/28 03:43:26;;;;;;;20.80;16.65;;;19.70;88.70;;;;;;5076013;28;20325;-44
2021/05/28 03:45:52;;;;;;;21.42;17.48;;;19.70;88.60;;;;;;5075883;28;20132;-45
2021/05/28 03:48:18;;;;;;;22.33;18.20;;;19.70;88.60;;;;;;5076011;28;20108;-45
2021/05/28 03:50:43;;;;;;;27.30;21.20;;;19.70;88.70;;;;;;5075836;28;20028;-45
2021/05/28 03:53:09;;;;;;;23.08;19.08;;;19.80;88.80;;;;;;5075981;28;20032;-37
2021/05/28 03:55:35;;;;;;;24.00;20.33;;;19.80;88.90;;;;;;5075642;28;20052;-37
2021/05/28 03:58:00;;;;;;;19.80;17.70;;;19.80;89.00;;;;;;5075744;28;20111;-46
2021/05/28 04:00:26;;;;;;;21.95;19.38;;;19.80;88.90;;;;;;5075884;28;20036;-44
2021/05/28 04:02:53;;;;;;;20.08;17.88;;;19.90;89.00;;;;;;5075723;28;20055;-37
2021/05/28 04:05:18;;;;;;;20.48;17.35;;;19.90;88.90;;;;;;5075497;28;20054;-43
2021/05/28 04:07:44;;;;;;;22.58;19.40;;;20.00;89.40;;;;;;5075891;28;20063;-37
2021/05/28 04:10:11;;;;;;;23.83;19.25;;;20.00;88.90;;;;;;5075415;28;20028;-38
2021/05/28 04:12:36;;;;;;;19.90;17.17;;;20.10;88.80;;;;;;5075826;28;20131;-49
2021/05/28 04:15:03;;;;;;;32.78;19.05;;;20.10;88.40;;;;;;5075613;28;20064;-38
2021/05/28 04:17:29;;;;;;;20.45;17.30;;;20.20;88.30;;;;;;5075803;28;20324;-48
2021/05/28 04:19:54;;;;;;;19.13;16.83;;;20.20;88.20;;;;;;5075538;28;20029;-45
2021/05/28 04:22:20;;;;;;;18.83;15.25;;;20.30;87.90;;;;;;5074325;28;20374;-38
2021/05/28 04:24:46;;;;;;;17.63;15.18;;;20.30;87.70;;;;;;5075238;28;20028;-38
2021/05/28 04:27:12;;;;;;;18.17;14.52;;;20.40;87.70;;;;;;5075251;28;20043;-47
2021/05/28 04:29:37;;;;;;;15.35;13.75;;;20.40;87.30;;;;;;5075455;28;20063;-48
2021/05/28 04:32:04;;;;;;;14.88;12.00;;;20.50;87.10;;;;;;5075352;28;20033;-38
2021/05/28 04:34:30;;;;;;;14.63;12.82;;;20.50;86.10;;;;;;5075193;28;20031;-47
2021/05/28 04:36:55;;;;;;;17.65;14.52;;;20.50;86.00;;;;;;5075248;28;20080;-37
2021/05/28 04:39:21;;;;;;;15.60;13.23;;;20.50;86.20;;;;;;5075101;28;20039;-38
2021/05/28 04:41:47;;;;;;;13.13;11.00;;;20.60;86.20;;;;;;5075022;28;20053;-38
2021/05/28 04:44:13;;;;;;;13.45;11.52;;;20.60;86.10;;;;;;5075101;28;20377;-46
2021/05/28 04:46:39;;;;;;;14.98;11.98;;;20.60;85.40;;;;;;5074969;28;20029;-38
2021/05/28 04:49:05;;;;;;;16.52;11.57;;;20.70;84.60;;;;;;5075051;28;20024;-47
2021/05/28 04:51:30;;;;;;;16.10;11.00;;;20.70;84.40;;;;;;5075179;28;20392;-38
2021/05/28 04:53:57;;;;;;;15.68;10.73;;;20.70;84.30;;;;;;5074420;28;20078;-38
2021/05/28 04:56:22;;;;;;;18.58;12.25;;;20.80;84.30;;;;;;5075051;28;20029;-38
2021/05/28 04:58:48;;;;;;;14.27;10.43;;;20.80;84.00;;;;;;5074245;28;20318;-44
2021/05/28 05:01:14;;;;;;;10.95;9.52;;;20.80;83.70;;;;;;5074716;28;20036;-37
2021/05/28 05:03:39;;;;;;;14.68;11.32;;;20.80;82.90;;;;;;5074909;28;20020;-45
2021/05/28 05:06:05;;;;;;;13.85;11.93;;;20.80;83.10;;;;;;5074911;28;20064;-38
2021/05/28 05:08:31;;;;;;;14.82;12.07;;;20.90;83.30;;;;;;5074542;28;20105;-38
2021/05/28 05:10:57;;;;;;;14.25;12.75;;;20.90;83.30;;;;;;5074523;28;20036;-38
2021/05/28 05:13:23;;;;;;;16.42;11.77;;;20.90;83.50;;;;;;5074637;28;20428;-38
2021/05/28 05:15:49;;;;;;;13.75;10.73;;;20.90;83.40;;;;;;5074702;28;20052;-45
2021/05/28 05:18:15;;;;;;;14.32;11.30;;;21.00;83.40;;;;;;5074501;28;20438;-46
2021/05/28 05:20:40;;;;;;;15.40;11.63;;;21.00;83.00;;;;;;5074628;28;20032;-46
2021/05/28 05:23:06;;;;;;;12.32;10.85;;;21.00;82.30;;;;;;5074887;28;20029;-39
2021/05/28 05:25:32;;;;;;;12.80;10.15;;;21.10;82.30;;;;;;5074862;28;20044;-38
2021/05/28 05:27:58;;;;;;;12.30;10.68;;;21.10;82.20;;;;;;5081812;28;20467;-46
2021/05/28 05:30:24;;;;;;;12.32;9.48;;;21.10;82.10;;;;;;5085886;28;20031;-46
2021/05/28 05:32:50;;;;;;;15.25;9.43;;;21.20;82.30;;;;;;5078317;28;20058;-44
2021/05/28 05:35:16;;;;;;;11.68;9.18;;;21.20;82.60;;;;;;5078367;28;20037;-46
2021/05/28 05:37:41;;;;;;;9.55;8.27;;;21.30;81.60;;;;;;5078328;28;20037;-48
2021/05/28 05:40:08;;;;;;;11.30;8.55;;;21.30;81.00;;;;;;5078100;28;20028;-38
2021/05/28 05:42:39;;;;;;;13.90;8.23;;;21.30;81.00;;;;;;5078002;28;20032;-43
2021/05/28 05:45:06;;;;;;;9.23;7.03;;;21.40;80.90;;;;;;5077661;28;20107;-39
2021/05/28 05:47:31;;;;;;;10.45;7.93;;;21.40;80.60;;;;;;5078382;28;20359;-44
2021/05/28 05:49:57;;;;;;;7.53;5.47;;;21.40;80.40;;;;;;5077765;28;20112;-38
2021/05/28 05:52:23;;;;;;;10.68;6.25;;;21.40;79.10;;;;;;5077590;28;20123;-45
2021/05/28 05:54:48;;;;;;;9.13;6.03;;;21.50;78.40;;;;;;5077461;28;20056;-44
2021/05/28 05:57:14;;;;;;;12.50;7.75;;;21.50;77.80;;;;;;5077973;28;20033;-38
2021/05/28 05:59:40;;;;;;;7.70;6.20;;;21.50;78.20;;;;;;5077330;28;20055;-44
2021/05/28 06:02:06;;;;;;;7.75;6.53;;;21.60;77.80;;;;;;5077947;28;20119;-38
2021/05/28 06:04:31;;;;;;;6.00;5.20;;;21.60;77.30;;;;;;5077710;28;20109;-38
2021/05/28 06:06:57;;;;;;;8.18;7.22;;;21.60;77.20;;;;;;5076770;28;20379;-38
2021/05/28 06:09:22;;;;;;;9.02;7.50;;;21.70;77.20;;;;;;5077008;28;20032;-38
2021/05/28 06:11:48;;;;;;;11.30;6.80;;;21.70;77.20;;;;;;5077563;28;20036;-45
2021/05/28 06:14:14;;;;;;;11.60;6.65;;;21.80;77.30;;;;;;5077358;28;20032;-45
2021/05/28 06:16:40;;;;;;;9.52;6.65;;;21.80;77.00;;;;;;5077806;28;20107;-38
2021/05/28 06:19:06;;;;;;;12.35;6.85;;;21.90;76.30;;;;;;5076936;28;20045;-45
2021/05/28 06:21:32;;;;;;;6.65;5.75;;;22.00;76.20;;;;;;5077262;28;20071;-44
2021/05/28 06:23:58;;;;;;;7.00;5.13;;;22.00;75.80;;;;;;5077125;28;20078;-45
2021/05/28 06:26:24;;;;;;;9.43;6.28;;;22.10;75.50;;;;;;5076846;28;20020;-45
2021/05/28 06:28:50;;;;;;;7.25;5.72;;;22.10;74.30;;;;;;5079152;28;20024;-47
2021/05/28 06:31:16;;;;;;;6.85;4.30;;;22.10;73.60;;;;;;5076978;28;20040;-38
2021/05/28 06:33:42;;;;;;;6.90;4.45;;;22.10;73.20;;;;;;5076941;28;20024;-45
2021/05/28 06:36:07;;;;;;;5.03;4.50;;;22.20;73.20;;;;;;5085184;28;20043;-45
2021/05/28 06:38:33;;;;;;;6.95;4.78;;;22.20;72.80;;;;;;5084500;28;20147;-38
2021/05/28 06:40:59;;;;;;;8.15;4.57;;;22.30;72.40;;;;;;5075713;28;20033;-45
2021/05/28 06:43:24;;;;;;;6.18;4.45;;;22.30;72.70;;;;;;5075722;28;20081;-44
2021/05/28 06:45:50;;;;;;;9.75;6.75;;;22.30;72.40;;;;;;5076065;28;20023;-46
2021/05/28 06:48:16;;;;;;;7.68;4.80;;;22.30;71.90;;;;;;5075834;28;20028;-38
2021/05/28 06:50:42;;;;;;;4.78;4.13;;;22.40;71.60;;;;;;5076166;28;20316;-38
2021/05/28 06:53:08;;;;;;;7.55;4.70;;;22.40;71.40;;;;;;5072250;28;20043;-38
2021/05/28 06:55:35;;;;;;;5.30;4.32;;;22.50;70.90;;;;;;5076173;28;20049;-39
2021/05/28 06:58:00;;;;;;;8.27;4.43;;;22.50;70.20;;;;;;5075752;28;20040;-38
2021/05/28 07:00:26;;;;;;;8.35;4.03;;;22.50;69.90;;;;;;5076085;28;20116;-44
2021/05/28 07:02:55;;;;;;;7.75;4.20;;;22.60;69.50;;;;;;5076160;28;20037;-38
2021/05/28 07:05:23;;;;;;;7.22;4.32;;;22.60;70.20;;;;;;5076249;28;20092;-47
2021/05/28 07:07:48;;;;;;;5.50;4.32;;;22.60;69.30;;;;;;5076139;28;20039;-45
2021/05/28 07:10:14;;;;;;;9.85;4.72;;;22.70;69.00;;;;;;5075852;28;20404;-45
2021/05/28 07:12:40;;;;;;;8.98;4.10;;;22.70;69.30;;;;;;5058247;28;20048;-39
2021/05/28 07:15:07;;;;;;;6.90;4.38;;;22.80;69.20;;;;;;5075868;28;20063;-45
2021/05/28 07:17:34;;;;;;;4.65;3.80;;;22.80;68.20;;;;;;5076190;28;20365;-45
2021/05/28 07:20:00;;;;;;;6.25;4.00;;;22.90;67.60;;;;;;5076112;28;20029;-47
2021/05/28 07:22:26;;;;;;;6.10;3.90;;;23.00;67.60;;;;;;5076030;28;20032;-46
2021/05/28 07:24:51;;;;;;;4.10;3.70;;;23.00;67.10;;;;;;5075923;28;20067;-45
2021/05/28 07:27:17;;;;;;;6.25;4.28;;;23.10;67.30;;;;;;5075618;28;20032;-38
2021/05/28 07:29:43;;;;;;;4.18;3.65;;;23.10;66.30;;;;;;5075715;28;20396;-46
2021/05/28 07:32:09;;;;;;;5.68;4.07;;;23.20;66.40;;;;;;5075488;28;20170;-39
2021/05/28 07:34:36;;;;;;;5.70;3.80;;;23.20;66.30;;;;;;5075490;28;20055;-44
2021/05/28 07:37:02;;;;;;;4.75;3.78;;;23.30;65.60;;;;;;5075235;28;20119;-39
2021/05/28 07:39:28;;;;;;;5.00;3.63;;;23.40;65.30;;;;;;5075285;28;20447;-38
2021/05/28 07:41:54;;;;;;;10.98;3.97;;;23.40;65.00;;;;;;5075428;28;20052;-38
2021/05/28 07:44:19;;;;;;;4.78;3.90;;;23.50;64.40;;;;;;5075654;28;20024;-39
2021/05/28 07:46:45;;;;;;;4.78;3.83;;;23.50;63.60;;;;;;5074976;28;20413;-46
2021/05/28 07:49:12;;;;;;;7.38;4.20;;;23.50;63.60;;;;;;5075390;28;20027;-39
2021/05/28 07:51:38;;;;;;;4.68;3.70;;;23.50;63.60;;;;;;5075002;28;20123;-44
2021/05/28 07:54:05;;;;;;;5.57;3.22;;;23.50;63.40;;;;;;5075076;28;20041;-45
2021/05/28 07:56:32;;;;;;;5.18;3.67;;;23.60;63.10;;;;;;5078459;28;20036;-44
2021/05/28 07:58:58;;;;;;;4.10;3.30;;;23.60;62.90;;;;;;5082449;28;20131;-44
2021/05/28 08:01:24;;;;;;;3.83;3.20;;;23.70;62.20;;;;;;5075376;28;20040;-38
2021/05/28 08:03:50;;;;;;;7.05;3.90;;;23.70;62.10;;;;;;5075028;28;20435;-44
2021/05/28 08:06:16;;;;;;;3.97;3.10;;;23.70;61.50;;;;;;5075094;28;20047;-38
2021/05/28 08:08:41;;;;;;;4.22;3.20;;;23.80;61.00;;;;;;5075492;28;20016;-38
2021/05/28 08:11:08;;;;;;;4.22;2.88;;;23.90;60.90;;;;;;5075046;28;20097;-38
2021/05/28 08:13:34;;;;;;;4.50;2.70;;;23.90;58.30;;;;;;5075262;28;20038;-38
2021/05/28 08:16:00;;;;;;;4.22;3.13;;;24.00;57.60;;;;;;5073860;28;20028;-43
2021/05/28 08:18:27;;;;;;;4.97;2.85;;;24.00;57.60;;;;;;5075004;28;20085;-44
2021/05/28 08:20:53;;;;;;;5.30;3.22;;;24.10;57.70;;;;;;5074930;28;20024;-38
2021/05/28 08:23:19;;;;;;;2.83;2.58;;;24.10;57.00;;;;;;5079750;28;20061;-38
2021/05/28 08:25:45;;;;;;;3.92;3.30;;;24.20;57.80;;;;;;5095539;28;20028;-39
2021/05/28 08:28:11;;;;;;;3.58;2.88;;;24.30;58.10;;;;;;5079342;28;20473;-38
2021/05/28 08:30:37;;;;;;;3.92;3.33;;;24.30;58.30;;;;;;5077190;28;20032;-38
2021/05/28 08:33:06;;;;;;;5.40;3.50;;;24.40;58.40;;;;;;5083198;28;20163;-38
2021/05/28 08:35:31;;;;;;;5.20;2.97;;;24.50;58.30;;;;;;5075045;28;20432;-38
2021/05/28 08:37:57;;;;;;;6.88;3.85;;;24.60;57.50;;;;;;5077275;28;20043;-44
2021/05/28 08:40:25;;;;;;;5.60;3.40;;;24.70;57.80;;;;;;5095143;28;20020;-44
2021/05/28 08:42:51;;;;;;;6.35;3.50;;;24.80;57.30;;;;;;5095175;28;20103;-39
2021/05/28 08:45:17;;;;;;;3.33;2.65;;;24.90;57.40;;;;;;5094562;28;20036;-46
2021/05/28 08:47:44;;;;;;;3.90;3.17;;;25.00;56.80;;;;;;5075355;28;20111;-44
2021/05/28 08:50:10;;;;;;;3.85;2.70;;;25.10;54.70;;;;;;5074308;28;20315;-44
2021/05/28 08:52:36;;;;;;;3.28;2.75;;;25.20;54.50;;;;;;5074625;28;20313;-38
2021/05/28 08:55:02;;;;;;;3.00;2.67;;;25.30;54.10;;;;;;5085334;28;20077;-38
2021/05/28 08:57:28;;;;;;;5.75;3.55;;;25.40;53.80;;;;;;5075063;28;20391;-48
2021/05/28 08:59:53;;;;;;;2.80;2.30;;;25.50;53.20;;;;;;5074240;28;20175;-45
2021/05/28 09:02:31;;;;;;;3.90;2.53;;;25.50;53.20;;;;;;5077365;28;20309;-45
2021/05/28 09:05:17;;;;;;;3.42;2.45;;;25.60;53.60;;;;;;5078408;28;20319;-45
2021/05/28 09:08:03;;;;;;;4.70;2.42;;;25.70;52.70;;;;;;5078593;28;20082;-45
2021/05/28 09:10:39;;;;;;;7.72;2.70;;;25.70;52.00;;;;;;5076786;28;20040;-38
2021/05/28 09:13:12;;;;;;;3.75;2.33;;;25.80;51.50;;;;;;5077890;28;20421;-45
2021/05/28 09:15:40;;;;;;;6.60;3.63;;;25.80;51.60;;;;;;5078273;28;20062;-45
2021/05/28 09:18:06;;;;;;;5.22;2.90;;;25.90;51.70;;;;;;5077598;28;20111;-40
2021/05/28 09:20:34;;;;;;;4.00;2.65;;;26.00;51.70;;;;;;5084958;28;20051;-44
2021/05/28 09:23:19;;;;;;;7.53;3.95;;;26.00;51.10;;;;;;5081913;28;20036;-39
2021/05/28 09:25:51;;;;;;;4.65;3.00;;;26.00;50.80;;;;;;5078526;28;20029;-39
2021/05/28 09:28:17;;;;;;;6.32;3.13;;;26.10;51.30;;;;;;5078087;28;20036;-38
2021/05/28 09:30:43;;;;;;;4.63;4.03;;;26.10;52.00;;;;;;5077995;28;20041;-46
2021/05/28 09:33:19;;;;;;;5.82;3.30;;;26.20;53.00;;;;;;5077629;28;20067;-39
2021/05/28 09:35:44;;;;;;;11.48;4.00;;;26.30;52.80;;;;;;5078371;28;20111;-38
2021/05/28 09:38:20;;;;;;;4.63;3.50;;;26.40;53.40;;;;;;5077839;28;20074;-45
2021/05/28 09:40:47;;;;;;;10.88;7.53;;;26.50;53.50;;;;;;5077631;28;20036;-39
2021/05/28 09:43:14;;;;;;;6.25;4.30;;;26.70;53.50;;;;;;5077694;28;20367;-42
2021/05/28 09:45:40;;;;;;;10.23;3.72;;;26.80;53.70;;;;;;5077791;28;20021;-38
2021/05/28 09:48:15;;;;;;;4.97;3.72;;;26.90;53.80;;;;;;5077455;28;20164;-39
2021/05/28 09:50:58;;;;;;;3.72;3.30;;;27.00;53.30;;;;;;5077768;28;20020;-38
2021/05/28 09:53:32;;;;;;;6.00;3.53;;;27.10;53.80;;;;;;5077555;28;20032;-38
2021/05/28 09:55:59;;;;;;;3.58;3.03;;;27.20;54.00;;;;;;5077665;28;20108;-44
2021/05/28 09:58:25;;;;;;;7.38;4.65;;;27.30;54.00;;;;;;5077223;28;20421;-38
2021/05/28 10:00:51;;;;;;;6.32;3.55;;;27.30;54.10;;;;;;5077442;28;20074;-38
2021/05/28 10:03:24;;;;;;;8.50;6.20;;;27.40;54.80;;;;;;5078028;28;20056;-39
2021/05/28 10:05:52;;;;;;;4.78;3.80;;;27.50;53.50;;;;;;5077547;28;20021;-39
2021/05/28 10:08:20;;;;;;;10.15;5.93;;;27.50;52.90;;;;;;5077041;28;20447;-45
2021/05/28 10:10:49;;;;;;;4.53;3.63;;;27.50;52.50;;;;;;5072803;28;20087;-40
2021/05/28 10:13:17;;;;;;;4.00;3.40;;;27.50;52.10;;;;;;5077095;28;20033;-39
2021/05/28 10:15:46;;;;;;;7.20;3.60;;;27.60;51.80;;;;;;5076842;28;20021;-47
2021/05/28 10:18:12;;;;;;;4.32;3.45;;;27.60;51.30;;;;;;5077324;28;20041;-47
2021/05/28 10:20:40;;;;;;;4.93;3.70;;;27.60;51.80;;;;;;5076492;28;20443;-46
2021/05/28 10:23:08;;;;;;;5.53;4.28;;;27.70;51.50;;;;;;5077240;28;20040;-39
2021/05/28 10:25:34;;;;;;;4.40;3.08;;;27.70;51.10;;;;;;5077050;28;20028;-39
2021/05/28 10:28:03;;;;;;;4.82;3.20;;;27.70;50.60;;;;;;5077181;28;20036;-39
2021/05/28 10:30:37;;;;;;;7.47;3.42;;;27.80;48.30;;;;;;5076297;28;20052;-39
2021/05/28 10:33:25;;;;;;;3.88;3.00;;;27.80;47.40;;;;;;5076727;28;20047;-39
2021/05/28 10:35:54;;;;;;;6.22;3.10;;;27.90;46.90;;;;;;5076294;28;20029;-39
2021/05/28 10:38:29;;;;;;;4.88;2.80;;;27.90;46.90;;;;;;5076824;28;20158;-39
2021/05/28 10:41:04;;;;;;;5.07;3.03;;;27.90;45.50;;;;;;5076258;28;20030;-39
2021/05/28 10:43:51;;;;;;;6.75;5.38;;;28.00;46.40;;;;;;5076374;28;20025;-41
2021/05/28 10:46:20;;;;;;;6.13;5.15;;;27.90;61.10;;;;;;5068994;28;20048;-40
2021/05/28 10:48:45;;;;;;;6.47;5.73;;;27.30;67.20;;;;;;5058315;28;20024;-40
2021/05/28 10:51:16;;;;;;;7.47;5.50;;;26.80;68.80;;;;;;5076107;28;20111;-40
2021/05/28 10:54:02;;;;;;;7.00;6.30;;;26.20;71.00;;;;;;5075898;28;20048;-40
2021/05/28 10:56:42;;;;;;;9.70;5.97;;;25.50;74.10;;;;;;5091216;28;20040;-39
2021/05/28 10:59:15;;;;;;;8.23;5.38;;;25.00;73.30;;;;;;5076603;28;20104;-39
2021/05/28 11:01:49;;;;;;;7.22;5.68;;;24.50;74.40;;;;;;5076324;28;20105;-39
2021/05/28 11:04:21;;;;;;;8.02;5.63;;;24.10;74.50;;;;;;5075785;28;20020;-39
2021/05/28 11:06:59;;;;;;;8.23;6.20;;;23.70;77.20;;;;;;5084854;28;20036;-39
2021/05/28 11:09:44;;;;;;;8.50;7.57;;;23.40;79.50;;;;;;5076059;28;20029;-39
2021/05/28 11:12:25;;;;;;;7.57;5.63;;;23.20;79.20;;;;;;5076305;28;20024;-40
2021/05/28 11:15:01;;;;;;;6.45;5.53;;;23.10;80.10;;;;;;5075624;28;20112;-40
2021/05/28 11:17:27;;;;;;;24.70;17.83;;;23.00;79.60;;;;;;5075974;28;20357;-40
2021/05/28 11:19:57;;;;;;;17.23;11.75;;;22.90;79.80;;;;;;5075670;28;20064;-40
2021/05/28 11:22:35;;;;;;;10.57;8.48;;;22.90;78.10;;;;;;5075979;28;20369;-39
2021/05/28 11:25:13;;;;;;;6.97;6.22;;;22.90;80.40;;;;;;5075046;28;20029;-39
2021/05/28 11:27:41;;;;;;;5.40;4.90;;;22.80;80.90;;;;;;5076152;28;20028;-39
2021/05/28 11:30:06;;;;;;;6.28;4.53;;;22.90;80.10;;;;;;5075452;28;20029;-39
2021/05/28 11:32:43;;;;;;;5.70;5.10;;;22.90;80.70;;;;;;5076000;28;20033;-39
2021/05/28 11:35:16;;;;;;;7.70;4.85;;;23.00;80.20;;;;;;5075566;28;20336;-40
2021/05/28 11:38:01;;;;;;;5.13;4.20;;;23.00;79.80;;;;;;5076168;28;20142;-39
2021/05/28 11:40:38;;;;;;;10.25;4.70;;;23.00;79.50;;;;;;5075258;28;20032;-39
2021/05/28 11:43:05;;;;;;;5.60;5.00;;;23.00;79.10;;;;;;5075510;28;20355;-39
2021/05/28 11:45:31;;;;;;;4.93;4.30;;;23.00;80.40;;;;;;5075423;28;20168;-40
2021/05/28 11:47:56;;;;;;;5.32;4.47;;;23.00;80.60;;;;;;5075050;28;20032;-39
2021/05/28 11:50:23;;;;;;;8.20;4.75;;;23.10;80.80;;;;;;5075393;28;20083;-43
2021/05/28 11:53:03;;;;;;;6.72;4.57;;;23.20;79.50;;;;;;5075547;28;20040;-48
2021/05/28 11:55:30;;;;;;;8.98;4.00;;;23.20;79.30;;;;;;5075363;28;20055;-52
2021/05/28 11:58:02;;;;;;;5.95;4.53;;;23.30;77.50;;;;;;5074077;28;20076;-39
2021/05/28 12:00:30;;;;;;;7.55;4.50;;;23.30;77.30;;;;;;5075587;28;20155;-40
2021/05/28 12:02:58;;;;;;;6.78;4.53;;;23.40;78.10;;;;;;5075691;28;20036;-49
2021/05/28 12:05:26;;;;;;;33.65;6.18;;;23.40;76.70;;;;;;5075258;28;20067;-47
2021/05/28 12:07:56;;;;;;;10.18;6.97;;;23.40;72.30;;;;;;5074838;28;20316;-48
2021/05/28 12:10:27;;;;;;;16.60;5.82;;;23.50;71.80;;;;;;5075211;28;20344;-47
2021/05/28 12:13:00;;;;;;;11.15;6.18;;;23.50;72.40;;;;;;5075373;28;20140;-48
2021/05/28 12:15:33;;;;;;;11.90;6.03;;;23.50;73.00;;;;;;5075433;28;20028;-39
2021/05/28 12:18:18;;;;;;;11.27;6.18;;;23.50;75.60;;;;;;5079527;28;20032;-40
2021/05/28 12:20:50;;;;;;;8.20;5.10;;;23.60;75.30;;;;;;5078579;28;20039;-48
2021/05/28 12:23:21;;;;;;;7.00;5.30;;;23.60;76.10;;;;;;5075184;28;20033;-51
2021/05/28 12:25:56;;;;;;;7.65;6.03;;;23.60;76.90;;;;;;5075152;28;20032;-49
2021/05/28 12:28:23;;;;;;;15.20;7.88;;;23.70;79.30;;;;;;5074677;28;20028;-47
2021/05/28 12:30:55;;;;;;;19.38;10.55;;;23.70;80.40;;;;;;5074401;28;20025;-49
2021/05/28 12:33:32;;;;;;;19.38;9.98;;;23.80;79.70;;;;;;5074746;28;20032;-48
2021/05/28 12:36:00;;;;;;;21.27;14.15;;;23.80;79.70;;;;;;5075225;28;20063;-48
2021/05/28 12:38:34;;;;;;;21.67;15.55;;;23.80;81.10;;;;;;5078770;28;20029;-39
2021/05/28 12:41:01;;;;;;;30.08;19.27;;;23.80;82.90;;;;;;5079014;28;20140;-39
2021/05/28 12:43:29;;;;;;;19.33;12.88;;;23.80;82.00;;;;;;5078425;28;20032;-39